Time;durP1;ratioP1;P1;durP2;ratioP2;P2;SDS_P1;SDS_P2;PMS_P1;PMS_P2;Temp;Humidity;BMP_temperature;BMP_pressure;BME280_temperature;BME280_humidity;BME280_pressure;Samples;Min_cycle;Max_cycle;Signal;HPM_P1;HPM_P2
2021/08/08 00:02:14;;;;;;;17.35;2.97;;;;;;;18.87;65.42;99151.31;4919093;29;20032;-90
2021/08/08 00:04:39;;;;;;;17.40;3.03;;;;;;;18.39;67.56;99164.25;4933732;29;20024;-89
2021/08/08 00:07:04;;;;;;;21.90;3.72;;;;;;;18.67;66.24;99163.56;4919145;29;20032;-90
2021/08/08 00:09:30;;;;;;;16.52;2.83;;;;;;;18.49;67.09;99159.47;4918930;29;20903;-89
2021/08/08 00:11:55;;;;;;;14.73;3.10;;;;;;;18.68;65.78;99152.75;4918925;29;20032;-90
2021/08/08 00:14:21;;;;;;;20.58;4.65;;;;;;;18.76;65.42;99151.78;4918858;29;20024;-89
2021/08/08 00:16:47;;;;;;;9.98;2.50;;;;;;;18.80;65.19;99140.63;4918781;29;20140;-90
2021/08/08 00:19:12;;;;;;;11.02;2.50;;;;;;;18.70;65.54;99150.72;4918742;29;20032;-90
2021/08/08 00:21:37;;;;;;;17.73;3.13;;;;;;;18.93;65.08;99147.09;4918910;29;20032;-89
2021/08/08 00:24:03;;;;;;;11.27;2.72;;;;;;;18.90;64.74;99142.97;4933340;29;20047;-90
2021/08/08 00:26:29;;;;;;;16.00;3.30;;;;;;;18.58;65.70;99150.38;4918802;29;20383;-90
2021/08/08 00:28:54;;;;;;;18.80;4.63;;;;;;;18.71;65.24;99151.53;4918729;29;20387;-90
2021/08/08 00:31:23;;;;;;;17.58;2.72;;;;;;;18.63;65.26;99145.31;4918372;29;20530;-89
2021/08/08 00:33:50;;;;;;;18.63;3.83;;;;;;;18.58;65.19;99150.38;4918426;29;20031;-89
2021/08/08 00:36:15;;;;;;;12.02;2.63;;;;;;;18.66;65.13;99143.28;4918496;29;20115;-89
2021/08/08 00:38:40;;;;;;;15.13;2.60;;;;;;;18.56;66.11;99148.91;4918560;29;20100;-89
2021/08/08 00:41:06;;;;;;;13.20;2.38;;;;;;;18.73;65.67;99141.53;4918417;29;20031;-89
2021/08/08 00:43:31;;;;;;;17.73;2.85;;;;;;;18.59;65.92;99151.19;4918234;29;20028;-89
2021/08/08 00:45:56;;;;;;;10.95;2.63;;;;;;;18.60;65.33;99144.84;4918299;29;20024;-89
2021/08/08 00:48:21;;;;;;;22.90;3.83;;;;;;;18.59;65.26;99146.69;4918410;29;20029;-89
2021/08/08 00:50:47;;;;;;;17.15;3.08;;;;;;;18.64;65.38;99138.16;4918383;29;20028;-90
2021/08/08 00:53:12;;;;;;;13.88;2.70;;;;;;;18.68;64.87;99151.91;4918507;29;20032;-90
2021/08/08 00:55:38;;;;;;;15.43;2.60;;;;;;;18.68;65.56;99147.44;4918323;29;20080;-90
2021/08/08 00:58:03;;;;;;;17.83;2.80;;;;;;;18.53;66.13;99136.00;4918074;29;20028;-89
2021/08/08 01:00:28;;;;;;;16.40;2.63;;;;;;;18.67;65.25;99152.91;4932611;29;20028;-89
2021/08/08 01:02:59;;;;;;;19.02;3.33;;;;;;;18.66;65.38;99135.31;4917982;29;20331;-90
2021/08/08 01:05:33;;;;;;;12.15;2.63;;;;;;;18.81;65.36;99152.09;4917840;29;20562;-90
2021/08/08 01:08:04;;;;;;;17.63;3.25;;;;;;;18.83;65.89;99148.22;4917950;29;20032;-89
2021/08/08 01:10:32;;;;;;;17.77;4.60;;;;;;;18.50;66.19;99142.50;4917895;29;20070;-90
2021/08/08 01:12:58;;;;;;;21.05;3.97;;;;;;;18.41;66.22;99148.94;4917760;29;20036;-90
2021/08/08 01:15:23;;;;;;;19.83;3.00;;;;;;;18.13;67.49;99160.22;4917858;29;20031;-89
2021/08/08 01:17:50;;;;;;;16.90;2.95;;;;;;;18.55;66.11;99153.41;4917886;29;20047;-89
2021/08/08 01:20:16;;;;;;;14.00;2.53;;;;;;;18.68;65.62;99151.91;4932313;29;20051;-89
2021/08/08 01:22:48;;;;;;;10.70;2.55;;;;;;;18.62;65.57;99149.00;4917809;29;20499;-89
2021/08/08 01:25:14;;;;;;;17.33;2.97;;;;;;;18.31;66.80;99148.41;4917706;29;20059;-89
2021/08/08 01:27:40;;;;;;;19.20;3.08;;;;;;;18.42;66.14;99158.53;4917568;29;20028;-89
2021/08/08 01:30:07;;;;;;;15.82;2.90;;;;;;;18.51;66.20;99159.28;4917581;29;20032;-89
2021/08/08 01:32:33;;;;;;;14.60;2.65;;;;;;;18.12;67.01;99155.91;4917361;29;20032;-88
2021/08/08 01:35:03;;;;;;;17.35;2.63;;;;;;;18.43;65.96;99142.41;4917396;29;20028;-89
2021/08/08 01:37:30;;;;;;;16.10;3.28;;;;;;;18.36;66.00;99157.44;4917676;29;20020;-89
2021/08/08 01:40:09;;;;;;;9.60;2.03;;;;;;;18.61;64.63;99144.66;4931991;29;20091;-89
2021/08/08 01:42:38;;;;;;;14.57;2.22;;;;;;;18.60;64.74;99148.34;4917249;29;20032;-89
2021/08/08 01:45:05;;;;;;;13.52;2.80;;;;;;;18.36;65.99;99138.03;4917339;29;20043;-88
2021/08/08 01:47:34;;;;;;;17.38;3.53;;;;;;;18.40;65.86;99148.13;4917315;29;20111;-88
2021/08/08 01:50:01;;;;;;;17.45;2.47;;;;;;;18.38;65.72;99146.63;4917259;29;20089;-89
2021/08/08 01:52:27;;;;;;;16.25;3.17;;;;;;;18.27;66.01;99152.44;4917192;29;20028;-89
2021/08/08 01:54:54;;;;;;;16.92;2.95;;;;;;;18.21;66.02;99148.69;4917073;29;20035;-89
2021/08/08 01:57:20;;;;;;;12.40;2.47;;;;;;;18.27;65.43;99147.94;4931521;29;20028;-90
2021/08/08 01:59:46;;;;;;;15.60;3.00;;;;;;;18.28;65.75;99143.44;4917185;29;20498;-89
2021/08/08 02:02:14;;;;;;;12.10;2.47;;;;;;;18.28;66.06;99165.53;4916935;29;20063;-89
2021/08/08 02:04:41;;;;;;;14.90;2.83;;;;;;;18.23;66.17;99162.63;4916945;29;20024;-89
2021/08/08 02:07:14;;;;;;;14.55;2.97;;;;;;;18.29;66.31;99158.41;4917024;29;20024;-90
2021/08/08 02:09:41;;;;;;;12.95;2.83;;;;;;;18.06;66.93;99159.31;4916865;29;20035;-89
2021/08/08 02:12:06;;;;;;;19.80;4.07;;;;;;;17.99;67.43;99159.22;4916438;29;20028;-89
2021/08/08 02:14:33;;;;;;;26.63;3.88;;;;;;;17.90;68.30;99151.53;4916732;29;20072;-90
2021/08/08 02:16:58;;;;;;;24.27;4.25;;;;;;;17.98;67.67;99148.78;4931409;29;20036;-89
2021/08/08 02:19:24;;;;;;;15.05;2.88;;;;;;;17.92;67.28;99146.84;4916693;29;20369;-88
2021/08/08 02:21:49;;;;;;;19.23;3.65;;;;;;;18.02;67.25;99140.25;4916506;29;20554;-89
2021/08/08 02:24:15;;;;;;;22.17;3.55;;;;;;;18.00;67.21;99136.13;4916706;29;20435;-90
2021/08/08 02:26:40;;;;;;;14.73;2.95;;;;;;;17.94;67.24;99142.19;4916544;29;20040;-89
2021/08/08 02:29:05;;;;;;;10.57;2.80;;;;;;;17.98;67.91;99151.44;4931136;29;20372;-89
2021/08/08 02:31:38;;;;;;;31.80;4.07;;;;;;;18.05;67.59;99149.72;4916352;29;20134;-88
2021/08/08 02:34:05;;;;;;;16.95;2.72;;;;;;;18.13;67.42;99144.28;4930912;29;20025;-90
2021/08/08 02:36:31;;;;;;;16.40;2.58;;;;;;;18.13;67.10;99140.81;4916363;29;20390;-89
2021/08/08 02:38:56;;;;;;;16.42;3.55;;;;;;;18.15;66.83;99136.97;4916354;29;20039;-89
2021/08/08 02:41:21;;;;;;;18.48;2.90;;;;;;;18.13;66.68;99136.31;4916297;29;20032;-89
2021/08/08 02:43:47;;;;;;;16.85;2.95;;;;;;;18.21;66.64;99138.06;4916377;29;20028;-89
2021/08/08 02:46:12;;;;;;;15.85;2.60;;;;;;;18.15;66.45;99142.28;4916196;29;20024;-89
2021/08/08 02:48:38;;;;;;;16.55;3.38;;;;;;;18.08;66.33;99141.34;4916145;29;20099;-89
2021/08/08 02:51:04;;;;;;;19.00;2.75;;;;;;;17.95;67.65;99154.44;4916197;29;20115;-90
2021/08/08 02:53:29;;;;;;;13.15;2.13;;;;;;;17.98;67.26;99149.59;4916031;29;20036;-89
2021/08/08 02:55:54;;;;;;;15.98;3.08;;;;;;;17.93;66.99;99152.00;4916288;29;20055;-89
2021/08/08 02:58:20;;;;;;;25.23;3.47;;;;;;;17.79;67.54;99155.41;4916074;29;20050;-89
2021/08/08 03:00:45;;;;;;;20.08;3.00;;;;;;;17.85;67.67;99133.47;4916059;29;20020;-90
2021/08/08 03:03:10;;;;;;;15.68;3.30;;;;;;;17.92;67.14;99134.41;4915901;29;20083;-89
2021/08/08 03:05:36;;;;;;;14.65;2.30;;;;;;;17.91;67.50;99142.53;4915794;29;20151;-89
2021/08/08 03:08:01;;;;;;;16.58;2.92;;;;;;;17.86;67.82;99150.25;4930467;29;20467;-89
2021/08/08 03:10:27;;;;;;;11.10;2.72;;;;;;;17.78;68.02;99135.19;4915989;29;20600;-89
2021/08/08 03:12:52;;;;;;;12.73;2.30;;;;;;;17.91;67.41;99148.69;4916028;29;20084;-90
2021/08/08 03:15:17;;;;;;;15.57;2.85;;;;;;;17.95;67.07;99155.28;4915789;29;20031;-89
2021/08/08 03:17:43;;;;;;;22.05;3.25;;;;;;;17.88;67.35;99149.03;4915842;29;20218;-88
2021/08/08 03:20:09;;;;;;;14.77;2.72;;;;;;;17.80;68.20;99151.75;4930200;29;20048;-89
2021/08/08 03:22:34;;;;;;;23.98;3.63;;;;;;;17.78;67.67;99159.91;4915717;29;20032;-89
2021/08/08 03:25:00;;;;;;;16.02;3.47;;;;;;;17.61;69.02;99153.09;4914814;29;20443;-89
2021/08/08 03:27:25;;;;;;;13.57;3.10;;;;;;;17.81;67.72;99151.59;4915838;29;20039;-90
2021/08/08 03:29:50;;;;;;;15.02;3.13;;;;;;;17.96;67.48;99164.06;4915769;29;20099;-89
2021/08/08 03:32:16;;;;;;;17.02;3.13;;;;;;;17.89;68.00;99171.94;4915566;29;20448;-89
2021/08/08 03:34:41;;;;;;;16.88;3.45;;;;;;;17.98;68.30;99175.34;4915525;29;20032;-90
2021/08/08 03:37:06;;;;;;;15.25;3.20;;;;;;;17.99;68.33;99174.31;4915650;29;20032;-89
2021/08/08 03:39:32;;;;;;;20.50;3.17;;;;;;;18.04;68.69;99179.91;4930130;29;20020;-90
2021/08/08 03:41:57;;;;;;;19.17;3.47;;;;;;;17.80;70.38;99163.19;4915588;29;20028;-93
2021/08/08 03:44:22;;;;;;;15.88;3.92;;;;;;;17.87;70.18;99170.47;4915998;29;20119;-94
2021/08/08 03:46:48;;;;;;;16.38;3.03;;;;;;;17.83;70.37;99168.19;4916075;29;20016;-94
2021/08/08 03:49:14;;;;;;;13.10;3.88;;;;;;;17.75;71.42;99176.22;4915911;29;20044;-95
2021/08/08 03:51:40;;;;;;;17.50;3.63;;;;;;;17.95;70.29;99167.72;4916022;29;20032;-94
2021/08/08 03:54:05;;;;;;;23.08;3.33;;;;;;;17.95;70.96;99154.44;4916184;29;20029;-95
2021/08/08 03:56:31;;;;;;;13.18;2.72;;;;;;;17.90;70.99;99162.16;4916317;29;20306;-96
2021/08/08 03:58:56;;;;;;;21.10;3.42;;;;;;;17.74;71.37;99163.94;4914920;29;20028;-96
2021/08/08 04:01:22;;;;;;;13.77;3.38;;;;;;;17.84;71.99;99161.84;4914876;29;20083;-95
2021/08/08 04:03:47;;;;;;;25.67;3.75;;;;;;;17.91;71.71;99169.09;4916017;29;20398;-95
2021/08/08 04:06:12;;;;;;;16.55;3.00;;;;;;;17.94;71.43;99163.44;4930727;29;20091;-95
2021/08/08 04:08:38;;;;;;;8.30;2.80;;;;;;;17.99;71.66;99163.69;4914730;29;20436;-93
2021/08/08 04:11:03;;;;;;;19.95;4.28;;;;;;;17.86;72.29;99169.66;4915315;29;20087;-93
2021/08/08 04:13:28;;;;;;;18.05;2.97;;;;;;;17.86;72.34;99167.00;4915297;29;20395;-92
2021/08/08 04:15:54;;;;;;;14.65;3.45;;;;;;;17.90;72.34;99162.16;4915581;29;20468;-92
2021/08/08 04:18:20;;;;;;;19.40;3.20;;;;;;;17.84;72.35;99167.16;4914124;29;20034;-93
2021/08/08 04:20:45;;;;;;;12.52;2.70;;;;;;;18.03;72.00;99162.34;4915267;29;20043;-92
2021/08/08 04:23:10;;;;;;;14.63;2.83;;;;;;;17.93;72.32;99156.44;4915515;29;20036;-92
2021/08/08 04:25:38;;;;;;;13.23;2.95;;;;;;;17.92;72.83;99154.81;4915296;29;20123;-92
2021/08/08 04:28:05;;;;;;;18.10;4.18;;;;;;;18.03;71.91;99172.97;4915286;29;20032;-93
2021/08/08 04:30:32;;;;;;;15.65;3.17;;;;;;;17.96;72.04;99162.22;4914172;29;20071;-93
2021/08/08 04:32:57;;;;;;;9.60;2.80;;;;;;;18.08;72.75;99170.56;4913955;29;20119;-91
2021/08/08 04:35:22;;;;;;;18.25;3.60;;;;;;;18.03;72.38;99167.66;4915921;29;20116;-92
2021/08/08 04:37:48;;;;;;;14.75;2.95;;;;;;;18.01;72.69;99159.88;4918623;29;20035;-92
2021/08/08 04:40:13;;;;;;;21.10;3.17;;;;;;;17.88;72.81;99153.53;4918591;29;20039;-92
2021/08/08 04:42:39;;;;;;;17.63;3.53;;;;;;;17.88;74.00;99164.97;4918588;29;20505;-92
2021/08/08 04:45:05;;;;;;;11.68;2.92;;;;;;;17.76;74.10;99172.53;4918620;29;20032;-91
2021/08/08 04:47:31;;;;;;;9.93;2.30;;;;;;;17.94;73.18;99174.88;4918932;29;20024;-91
2021/08/08 04:49:56;;;;;;;13.15;2.08;;;;;;;17.91;73.19;99171.75;4918471;29;20160;-92
2021/08/08 04:52:22;;;;;;;8.80;2.05;;;;;;;17.91;73.36;99155.81;4918416;29;20087;-92
2021/08/08 04:54:47;;;;;;;15.80;2.60;;;;;;;17.98;73.22;99170.03;4918165;29;20024;-91
2021/08/08 04:57:12;;;;;;;11.75;2.50;;;;;;;18.01;73.41;99169.69;4918242;29;20056;-92
2021/08/08 04:59:38;;;;;;;18.40;2.67;;;;;;;17.82;74.42;99173.63;4918243;29;20486;-93
2021/08/08 05:02:03;;;;;;;7.35;1.50;;;;;;;17.93;73.74;99178.53;4916976;29;20031;-93
2021/08/08 05:04:28;;;;;;;11.77;2.88;;;;;;;17.80;74.34;99175.66;4918391;29;20396;-92
2021/08/08 05:06:54;;;;;;;9.77;2.53;;;;;;;17.92;74.53;99187.50;4918341;29;20482;-93
2021/08/08 05:09:19;;;;;;;11.85;2.22;;;;;;;17.87;75.05;99186.41;4918229;29;20624;-92
2021/08/08 05:11:44;;;;;;;13.48;1.88;;;;;;;17.87;75.07;99171.31;4918127;29;20035;-92
2021/08/08 05:14:11;;;;;;;10.07;2.60;;;;;;;17.90;74.55;99183.38;4917808;29;20031;-92
2021/08/08 05:16:37;;;;;;;6.03;2.00;;;;;;;17.92;74.16;99174.22;4918171;29;20028;-93
2021/08/08 05:19:02;;;;;;;7.97;1.88;;;;;;;17.94;74.06;99180.19;4918121;29;20050;-93
2021/08/08 05:21:27;;;;;;;5.38;1.65;;;;;;;18.04;74.06;99185.22;4917997;29;20032;-93
2021/08/08 05:23:53;;;;;;;6.00;1.92;;;;;;;18.07;73.70;99179.56;4932362;29;20036;-92
2021/08/08 05:26:18;;;;;;;7.05;1.75;;;;;;;17.98;74.19;99170.03;4917884;29;20024;-93
2021/08/08 05:28:44;;;;;;;5.70;2.47;;;;;;;17.96;73.98;99190.63;4916795;29;20080;-93
2021/08/08 05:31:10;;;;;;;9.50;2.38;;;;;;;17.91;74.52;99188.53;4932672;29;20107;-92
2021/08/08 05:33:35;;;;;;;7.70;2.20;;;;;;;17.55;75.98;99183.00;4918004;29;20403;-94
2021/08/08 05:36:01;;;;;;;7.68;1.92;;;;;;;17.51;75.70;99185.19;4917375;29;20406;-95
2021/08/08 05:38:26;;;;;;;7.05;2.15;;;;;;;17.61;75.23;99190.25;4917053;29;20060;-93
2021/08/08 05:40:51;;;;;;;7.65;1.73;;;;;;;17.68;74.94;99193.03;4917157;29;20083;-95
2021/08/08 05:43:18;;;;;;;4.65;1.50;;;;;;;17.66;75.74;99198.50;4919728;29;20071;-94
2021/08/08 05:45:47;;;;;;;5.00;1.50;;;;;;;17.81;74.85;99198.53;4930961;29;20024;-95
2021/08/08 06:08:54;;;;;;;3.20;1.30;;;;;;;17.82;74.52;99208.16;5045234;23;20277;-96
2021/08/08 06:11:19;;;;;;;3.08;1.30;;;;;;;17.94;74.14;99198.78;4943335;29;20152;-95
2021/08/08 06:13:44;;;;;;;4.35;1.58;;;;;;;18.12;74.07;99203.72;4943719;29;20471;-96
2021/08/08 06:16:10;;;;;;;4.97;1.38;;;;;;;18.13;73.76;99213.34;4951080;29;20023;-96
2021/08/08 06:18:35;;;;;;;4.93;1.77;;;;;;;17.89;74.50;99219.75;4951242;29;20023;-95
2021/08/08 06:21:00;;;;;;;4.47;0.95;;;;;;;18.16;74.46;99218.28;4936319;29;20393;-94
2021/08/08 06:23:26;;;;;;;2.25;1.25;;;;;;;17.97;74.19;99210.84;4934834;29;20393;-95
2021/08/08 06:25:51;;;;;;;3.45;1.25;;;;;;;18.12;73.84;99219.66;4934875;29;20032;-96
2021/08/08 06:28:16;;;;;;;4.28;1.13;;;;;;;18.13;73.70;99231.97;4950966;28;20027;-96
2021/08/08 06:30:42;;;;;;;2.90;1.10;;;;;;;18.21;73.95;99225.75;4935022;28;20042;-96
2021/08/08 06:33:07;;;;;;;5.03;1.50;;;;;;;18.11;74.36;99222.50;4957693;29;20127;-96
2021/08/08 06:40:43;;;;;;;3.50;1.40;;;;;;;18.03;74.70;99226.09;5726122;23;1175536;-96
2021/08/08 06:43:08;;;;;;;3.65;1.25;;;;;;;17.95;74.56;99223.50;4919056;29;20071;-96
2021/08/08 06:45:34;;;;;;;5.90;1.30;;;;;;;18.18;74.18;99248.16;4917051;29;20044;-96
2021/08/08 06:48:00;;;;;;;5.85;1.50;;;;;;;18.15;74.04;99245.06;4917709;29;20048;-96
2021/08/08 06:50:30;;;;;;;3.17;1.38;;;;;;;18.19;73.81;99249.00;4923056;29;20028;-96
2021/08/08 06:52:56;;;;;;;6.05;1.55;;;;;;;17.95;75.49;99245.59;4918802;29;20028;-93
2021/08/08 06:55:22;;;;;;;5.57;1.30;;;;;;;18.05;75.62;99255.94;4916754;29;20039;-96
2021/08/08 06:57:48;;;;;;;7.05;2.15;;;;;;;18.06;79.54;99257.59;4919322;29;20028;-93
2021/08/08 07:00:13;;;;;;;3.55;1.52;;;;;;;18.21;78.50;99249.66;4936113;29;20023;-95
2021/08/08 07:15:35;;;;;;;2.13;1.15;;;;;;;18.19;75.33;99259.63;5116222;23;20055;-96
2021/08/08 07:18:00;;;;;;;5.85;1.55;;;;;;;18.02;76.58;99245.66;4946666;29;20087;-96
2021/08/08 07:20:26;;;;;;;3.75;1.50;;;;;;;18.07;76.12;99253.09;4943459;29;20019;-95
2021/08/08 07:22:51;;;;;;;4.20;1.35;;;;;;;18.24;75.47;99259.91;4944077;29;20112;-95
2021/08/08 07:25:17;;;;;;;3.95;1.63;;;;;;;18.43;75.58;99262.00;4942793;29;20062;-96
2021/08/08 07:27:43;;;;;;;6.57;1.60;;;;;;;18.40;75.70;99259.75;4941375;29;20035;-95
2021/08/08 07:30:08;;;;;;;7.07;1.88;;;;;;;18.49;75.74;99267.63;4938775;29;20032;-96
2021/08/08 07:32:34;;;;;;;6.13;2.40;;;;;;;18.33;75.86;99276.59;4937230;29;20107;-96
2021/08/08 07:35:01;;;;;;;5.35;2.25;;;;;;;18.59;75.08;99274.28;4954763;29;20031;-96
2021/08/08 07:37:26;;;;;;;7.45;1.60;;;;;;;18.50;75.25;99275.38;4958134;29;20024;-96
2021/08/08 07:39:51;;;;;;;3.97;1.65;;;;;;;18.61;75.16;99261.66;4947382;29;20118;-95
2021/08/08 07:42:17;;;;;;;4.40;1.90;;;;;;;18.69;75.62;99263.38;4944359;29;20031;-96
2021/08/08 07:44:42;;;;;;;4.82;2.30;;;;;;;18.81;75.34;99263.75;4948825;29;20537;-95
2021/08/08 07:47:08;;;;;;;8.57;2.42;;;;;;;18.90;75.25;99280.44;4935679;29;20026;-95
2021/08/08 07:49:33;;;;;;;8.10;2.22;;;;;;;18.99;74.88;99285.47;4935713;29;20110;-95
2021/08/08 07:51:58;;;;;;;6.40;1.88;;;;;;;19.12;74.13;99270.69;4935728;29;20391;-95
2021/08/08 07:54:24;;;;;;;7.88;2.25;;;;;;;19.00;74.83;99294.28;4935605;29;20391;-95
2021/08/08 07:56:49;;;;;;;6.05;2.85;;;;;;;19.11;73.31;99295.63;4935664;29;20039;-95
2021/08/08 07:59:15;;;;;;;6.40;1.98;;;;;;;18.91;75.15;99298.06;4935834;29;20024;-94
2021/08/08 08:01:41;;;;;;;8.00;2.47;;;;;;;19.02;74.34;99294.94;4936351;29;20027;-95
2021/08/08 08:04:07;;;;;;;6.93;2.33;;;;;;;19.08;74.19;99296.03;4938964;29;20088;-96
2021/08/08 08:06:32;;;;;;;9.93;2.53;;;;;;;19.07;74.54;99302.34;4952014;29;20027;-96
2021/08/08 08:11:25;;;;;;;12.75;2.42;;;;;;;19.06;74.73;99290.88;4929320;29;20044;-95
2021/08/08 08:16:20;;;;;;;8.95;2.70;;;;;;;19.05;75.24;99309.69;4930705;29;20048;-96
2021/08/08 08:18:46;;;;;;;13.73;3.05;;;;;;;18.79;76.06;99310.97;4925785;29;20047;-96
2021/08/08 08:21:11;;;;;;;11.65;3.22;;;;;;;18.82;75.94;99310.63;4923800;29;20024;-95
2021/08/08 08:23:36;;;;;;;16.70;4.95;;;;;;;18.71;77.16;99332.34;4922527;29;20028;-96
2021/08/08 08:26:02;;;;;;;14.18;4.30;;;;;;;18.83;77.45;99333.56;4921938;29;20446;-95
2021/08/08 08:28:29;;;;;;;22.88;4.55;;;;;;;18.62;78.61;99347.53;4922274;29;20027;-95
2021/08/08 08:30:56;;;;;;;23.40;4.45;;;;;;;18.11;80.72;99340.22;4929755;29;20084;-95
2021/08/08 08:33:22;;;;;;;19.60;3.90;;;;;;;18.50;79.24;99346.34;4931516;29;20035;-96
2021/08/08 08:35:47;;;;;;;24.90;5.32;;;;;;;18.49;79.27;99347.34;4938222;29;20028;-95
2021/08/08 08:38:12;;;;;;;21.95;4.78;;;;;;;18.67;78.53;99344.34;4939649;29;20051;-95
2021/08/08 08:48:27;;;;;;;27.95;4.97;;;;;;;18.36;79.51;99353.28;4938291;29;20020;-94
2021/08/08 08:50:54;;;;;;;26.73;5.07;;;;;;;18.26;80.14;99348.22;4932750;29;20044;-95
2021/08/08 08:53:21;;;;;;;18.77;4.07;;;;;;;18.82;78.71;99385.09;4922555;29;20032;-96
2021/08/08 08:55:47;;;;;;;15.95;4.40;;;;;;;18.40;79.68;99373.16;4900182;29;20028;-95
2021/08/08 08:58:12;;;;;;;30.45;5.43;;;;;;;18.92;77.63;99382.19;4901806;29;20036;-95
2021/08/08 09:00:38;;;;;;;21.42;4.65;;;;;;;18.65;77.55;99384.41;4915595;29;20056;-95
2021/08/08 09:03:03;;;;;;;21.13;5.22;;;;;;;18.88;77.26;99394.16;4902230;29;20051;-95
2021/08/08 09:05:30;;;;;;;17.05;4.28;;;;;;;19.14;75.63;99391.06;4900260;29;20024;-96
2021/08/08 09:07:56;;;;;;;18.15;4.38;;;;;;;19.06;75.21;99399.16;4900255;29;20523;-94
2021/08/08 09:10:23;;;;;;;17.80;4.30;;;;;;;18.96;75.97;99402.06;4899961;29;20056;-95
2021/08/08 09:13:00;;;;;;;16.75;4.72;;;;;;;19.28;75.37;99406.19;4900301;29;20047;-95
2021/08/08 09:15:42;;;;;;;23.58;4.82;;;;;;;19.30;75.42;99404.16;4901186;29;20025;-96
2021/08/08 09:18:21;;;;;;;12.32;5.03;;;;;;;19.56;73.65;99411.63;4899113;29;20029;-96
2021/08/08 09:20:48;;;;;;;18.67;4.15;;;;;;;19.39;74.15;99413.69;4900114;29;20028;-96
2021/08/08 09:23:15;;;;;;;18.63;5.28;;;;;;;19.35;74.34;99409.75;4898748;29;20060;-95
2021/08/08 09:25:51;;;;;;;17.10;4.55;;;;;;;19.58;74.40;99419.44;4899958;29;20033;-96
2021/08/08 09:28:17;;;;;;;16.38;5.05;;;;;;;19.25;74.41;99419.84;4899719;29;20044;-95
2021/08/08 09:30:43;;;;;;;16.92;4.45;;;;;;;19.43;74.87;99422.13;4899727;29;20024;-96
2021/08/08 09:33:10;;;;;;;19.98;5.28;;;;;;;19.25;75.53;99427.81;4899714;29;20047;-95
2021/08/08 09:35:40;;;;;;;20.88;4.53;;;;;;;19.17;74.94;99425.28;4899594;29;20033;-94
2021/08/08 09:38:07;;;;;;;16.80;4.43;;;;;;;19.27;75.06;99428.47;4899612;29;20136;-95
2021/08/08 09:40:36;;;;;;;13.52;4.32;;;;;;;19.47;74.33;99430.56;4900413;29;20021;-96
2021/08/08 09:43:04;;;;;;;15.85;3.92;;;;;;;19.53;74.13;99436.00;4900603;29;20075;-96
2021/08/08 09:45:43;;;;;;;18.35;4.05;;;;;;;19.33;75.35;99435.75;4900949;29;20028;-95
2021/08/08 09:48:13;;;;;;;22.33;4.45;;;;;;;18.97;76.59;99447.09;4899765;29;20202;-95
2021/08/08 09:50:43;;;;;;;16.45;5.15;;;;;;;19.23;77.41;99445.81;4915159;29;20025;-95
2021/08/08 09:53:15;;;;;;;23.17;4.70;;;;;;;18.92;77.89;99454.00;4914339;29;20027;-96
2021/08/08 09:55:41;;;;;;;13.25;4.13;;;;;;;18.99;77.90;99454.91;4899600;29;20032;-94
2021/08/08 09:58:22;;;;;;;14.80;5.03;;;;;;;19.37;76.12;99453.00;4913626;29;20047;-95
2021/08/08 10:00:56;;;;;;;9.00;4.10;;;;;;;19.55;75.02;99455.25;4899111;29;20024;-96
2021/08/08 10:03:21;;;;;;;15.27;4.72;;;;;;;19.53;75.11;99467.09;4899961;29;20028;-96
2021/08/08 10:05:46;;;;;;;11.75;3.55;;;;;;;19.62;74.07;99458.00;4899062;29;20120;-95
2021/08/08 10:08:13;;;;;;;12.02;3.35;;;;;;;19.85;72.93;99465.06;4899002;29;20080;-95
2021/08/08 10:10:40;;;;;;;14.90;3.38;;;;;;;19.32;73.60;99468.69;4898718;29;20503;-96
2021/08/08 10:13:44;;;;;;;12.35;3.08;;;;;;;19.60;73.62;99484.00;4899219;29;20032;-96
2021/08/08 10:16:13;;;;;;;12.00;3.53;;;;;;;19.41;74.42;99480.88;4898338;29;20491;-94
2021/08/08 10:19:01;;;;;;;16.27;4.28;;;;;;;19.40;74.86;99484.53;4899062;29;20033;-95
2021/08/08 10:21:28;;;;;;;12.85;3.65;;;;;;;19.16;74.39;99479.50;4913816;29;20040;-95
2021/08/08 10:23:58;;;;;;;14.98;3.92;;;;;;;19.22;75.57;99492.06;4898620;29;20031;-96
2021/08/08 10:26:24;;;;;;;10.98;4.28;;;;;;;18.85;76.20;99491.09;4900367;29;20108;-95
2021/08/08 10:28:51;;;;;;;15.82;3.72;;;;;;;19.11;76.15;99490.69;4898980;29;20056;-95
2021/08/08 10:31:20;;;;;;;14.93;4.70;;;;;;;18.89;76.87;99497.72;4898642;29;20032;-95
2021/08/08 10:33:51;;;;;;;13.93;4.22;;;;;;;19.31;76.53;99506.97;4900298;29;20112;-95
2021/08/08 10:36:22;;;;;;;18.38;5.90;;;;;;;19.88;75.33;99501.97;4903822;29;20032;-95
2021/08/08 10:38:49;;;;;;;13.60;4.10;;;;;;;19.73;75.46;99500.16;4900464;29;20104;-96
2021/08/08 10:41:14;;;;;;;16.08;4.55;;;;;;;20.09;72.92;99507.34;4898787;29;20031;-94
2021/08/08 10:43:46;;;;;;;16.63;5.03;;;;;;;20.16;73.05;99510.94;4898662;29;20033;-96
2021/08/08 10:46:14;;;;;;;18.85;5.28;;;;;;;20.55;73.00;99501.66;4898484;29;20115;-96
2021/08/08 10:48:42;;;;;;;13.05;4.28;;;;;;;21.05;71.41;99503.53;4898125;29;20031;-96
2021/08/08 10:51:24;;;;;;;16.13;4.00;;;;;;;20.60;70.13;99501.94;4899500;29;20020;-96
2021/08/08 10:54:04;;;;;;;14.23;4.45;;;;;;;20.74;70.57;99515.41;4898477;29;20033;-95
2021/08/08 10:56:40;;;;;;;11.35;3.97;;;;;;;20.68;70.36;99513.50;4899048;29;20388;-96
2021/08/08 10:59:16;;;;;;;15.15;4.93;;;;;;;20.77;68.81;99513.19;4897852;29;20025;-95
2021/08/08 11:01:41;;;;;;;20.92;6.13;;;;;;;21.09;69.53;99520.78;4898102;29;20032;-95
2021/08/08 11:04:07;;;;;;;17.70;5.68;;;;;;;20.96;67.88;99530.34;4897513;29;20029;-94
2021/08/08 11:06:34;;;;;;;14.70;4.30;;;;;;;20.65;70.03;99521.88;4897706;29;20399;-95
2021/08/08 11:09:01;;;;;;;14.73;3.78;;;;;;;21.16;68.61;99527.84;4897408;29;20038;-95
2021/08/08 11:11:29;;;;;;;13.52;3.83;;;;;;;21.45;67.65;99533.22;4897459;29;20032;-95
2021/08/08 11:14:16;;;;;;;12.13;3.53;;;;;;;21.10;68.29;99527.81;4897472;29;20032;-95
2021/08/08 11:16:47;;;;;;;13.85;3.92;;;;;;;21.73;68.18;99525.94;4897592;29;20029;-94
2021/08/08 11:19:13;;;;;;;12.10;3.40;;;;;;;22.02;67.28;99541.88;4897347;29;20033;-95
2021/08/08 11:21:39;;;;;;;11.07;3.38;;;;;;;22.14;66.16;99541.13;4897416;29;20039;-95
2021/08/08 11:24:10;;;;;;;15.02;3.80;;;;;;;22.78;63.96;99536.31;4897181;29;20029;-94
2021/08/08 11:26:35;;;;;;;17.75;5.05;;;;;;;22.02;64.35;99536.53;4896054;29;20097;-94
2021/08/08 11:29:05;;;;;;;10.80;3.53;;;;;;;21.43;64.03;99553.91;4897819;29;20025;-94
2021/08/08 11:31:36;;;;;;;11.02;3.33;;;;;;;20.98;65.57;99546.19;4897185;29;20025;-95
2021/08/08 11:34:07;;;;;;;13.33;4.03;;;;;;;21.64;65.92;99545.81;4897006;29;20444;-94
2021/08/08 11:36:33;;;;;;;10.10;4.13;;;;;;;22.18;64.00;99553.06;4897226;29;20059;-94
2021/08/08 11:39:00;;;;;;;11.02;3.38;;;;;;;22.53;63.21;99550.31;4896980;29;20032;-94
2021/08/08 11:41:26;;;;;;;9.88;3.10;;;;;;;22.28;63.27;99559.91;4897067;29;20112;-95
2021/08/08 11:44:34;;;;;;;13.23;3.63;;;;;;;22.55;61.33;99577.69;4896886;29;20103;-94
2021/08/08 11:46:59;;;;;;;8.85;2.42;;;;;;;22.02;62.38;99571.28;4898729;29;20566;-93
2021/08/08 11:49:25;;;;;;;16.20;4.45;;;;;;;22.04;61.52;99570.09;4900917;29;20024;-93
2021/08/08 11:51:58;;;;;;;15.60;2.85;;;;;;;22.19;61.65;99585.97;4900805;29;20472;-94
2021/08/08 11:54:26;;;;;;;12.07;3.45;;;;;;;21.89;62.43;99585.44;4915174;29;20057;-94
2021/08/08 11:56:51;;;;;;;15.15;4.20;;;;;;;21.82;62.93;99579.22;4900765;29;20023;-93
2021/08/08 11:59:30;;;;;;;13.63;3.38;;;;;;;21.63;63.06;99584.25;4900751;29;20036;-94
2021/08/08 12:02:08;;;;;;;19.63;3.78;;;;;;;21.93;61.49;99592.03;4900598;29;20028;-94
2021/08/08 12:04:36;;;;;;;13.98;3.63;;;;;;;21.70;62.35;99585.13;4900525;29;20029;-94
2021/08/08 12:07:04;;;;;;;17.33;2.78;;;;;;;21.80;62.16;99592.78;4914898;29;20595;-93
2021/08/08 12:09:30;;;;;;;16.33;3.40;;;;;;;21.58;62.78;99608.91;4900377;29;20097;-93
2021/08/08 12:11:57;;;;;;;14.60;3.75;;;;;;;21.68;63.51;99595.19;4900548;29;20032;-94
2021/08/08 12:14:37;;;;;;;9.70;2.60;;;;;;;22.22;61.97;99598.13;4900341;29;20104;-94
2021/08/08 12:17:09;;;;;;;10.27;2.85;;;;;;;22.11;62.50;99603.00;4900093;29;20052;-93
2021/08/08 12:19:36;;;;;;;;;;;;;;;22.43;61.60;99619.41;4900490;29;20428;-92